sensor_id;sensor_type;location;lat;lon;timestamp;pressure;altitude;pressure_sealevel;temperature;humidity
13732;BME280;6937;56.096;12.664;2023-05-03T00:00:27;102021.97;;;7.74;100.00
13732;BME280;6937;56.096;12.664;2023-05-03T00:02:53;102013.00;;;7.77;100.00
13732;BME280;6937;56.096;12.664;2023-05-03T00:05:21;102020.84;;;7.80;100.00
13732;BME280;6937;56.096;12.664;2023-05-03T00:07:47;102009.41;;;7.78;100.00
13732;BME280;6937;56.096;12.664;2023-05-03T00:10:12;102016.53;;;7.77;100.00
13732;BME280;6937;56.096;12.664;2023-05-03T00:12:40;102008.53;;;7.77;100.00
13732;BME280;6937;56.096;12.664;2023-05-03T00:15:07;102015.66;;;7.77;100.00
13732;BME280;6937;56.096;12.664;2023-05-03T00:17:33;102019.25;;;7.76;100.00
13732;BME280;6937;56.096;12.664;2023-05-03T00:19:59;102015.66;;;7.77;100.00
13732;BME280;6937;56.096;12.664;2023-05-03T00:22:24;102020.06;;;7.78;100.00
13732;BME280;6937;56.096;12.664;2023-05-03T00:24:51;102021.94;;;7.76;100.00
13732;BME280;6937;56.096;12.664;2023-05-03T00:27:17;102017.44;;;7.76;100.00
13732;BME280;6937;56.096;12.664;2023-05-03T00:29:42;102021.72;;;7.81;100.00
13732;BME280;6937;56.096;12.664;2023-05-03T00:32:07;102019.03;;;7.81;100.00
13732;BME280;6937;56.096;12.664;2023-05-03T00:34:34;102023.59;;;7.78;100.00
13732;BME280;6937;56.096;12.664;2023-05-03T00:37:00;102026.16;;;7.80;100.00
13732;BME280;6937;56.096;12.664;2023-05-03T00:39:28;102024.38;;;7.81;100.00
13732;BME280;6937;56.096;12.664;2023-05-03T00:41:57;102010.16;;;7.82;100.00
13732;BME280;6937;56.096;12.664;2023-05-03T00:44:23;102024.38;;;7.81;100.00
13732;BME280;6937;56.096;12.664;2023-05-03T00:46:49;102023.50;;;7.80;100.00
13732;BME280;6937;56.096;12.664;2023-05-03T00:49:14;102021.72;;;7.81;100.00
13732;BME280;6937;56.096;12.664;2023-05-03T00:51:41;102013.72;;;7.81;100.00
13732;BME280;6937;56.096;12.664;2023-05-03T00:54:07;102012.00;;;7.80;100.00
13732;BME280;6937;56.096;12.664;2023-05-03T00:56:33;102018.06;;;7.83;100.00
13732;BME280;6937;56.096;12.664;2023-05-03T00:58:59;102008.28;;;7.84;100.00
13732;BME280;6937;56.096;12.664;2023-05-03T01:01:25;102011.75;;;7.86;100.00
13732;BME280;6937;56.096;12.664;2023-05-03T01:03:51;102011.81;;;7.84;100.00
13732;BME280;6937;56.096;12.664;2023-05-03T01:07:25;102012.75;;;7.83;100.00
13732;BME280;6937;56.096;12.664;2023-05-03T01:11:59;102014.72;;;7.78;100.00
13732;BME280;6937;56.096;12.664;2023-05-03T01:14:40;102008.53;;;7.77;100.00
13732;BME280;6937;56.096;12.664;2023-05-03T01:17:14;102013.84;;;7.77;100.00
13732;BME280;6937;56.096;12.664;2023-05-03T01:19:44;102006.78;;;7.76;100.00
13732;BME280;6937;56.096;12.664;2023-05-03T01:22:25;102015.66;;;7.77;100.00
13732;BME280;6937;56.096;12.664;2023-05-03T01:25:02;102012.94;;;7.78;100.00
13732;BME280;6937;56.096;12.664;2023-05-03T01:27:31;102019.91;;;7.81;100.00
13732;BME280;6937;56.096;12.664;2023-05-03T01:29:56;102026.28;;;7.77;100.00
13732;BME280;6937;56.096;12.664;2023-05-03T01:32:27;102018.31;;;7.77;100.00
13732;BME280;6937;56.096;12.664;2023-05-03T01:35:19;102014.84;;;7.75;100.00
13732;BME280;6937;56.096;12.664;2023-05-03T01:37:48;102021.97;;;7.74;100.00
13732;BME280;6937;56.096;12.664;2023-05-03T01:40:14;102023.72;;;7.75;100.00
13732;BME280;6937;56.096;12.664;2023-05-03T01:42:44;102022.91;;;7.73;100.00
13732;BME280;6937;56.096;12.664;2023-05-03T01:45:10;102030.13;;;7.70;100.00
13732;BME280;6937;56.096;12.664;2023-05-03T01:47:36;102029.97;;;7.74;100.00
13732;BME280;6937;56.096;12.664;2023-05-03T01:50:01;102029.09;;;7.74;100.00
13732;BME280;6937;56.096;12.664;2023-05-03T01:52:26;102033.53;;;7.73;100.00
13732;BME280;6937;56.096;12.664;2023-05-03T01:54:52;102027.56;;;7.68;100.00
13732;BME280;6937;56.096;12.664;2023-05-03T01:57:17;102033.78;;;7.67;100.00
13732;BME280;6937;56.096;12.664;2023-05-03T01:59:43;102028.38;;;7.69;100.00
13732;BME280;6937;56.096;12.664;2023-05-03T02:02:08;102030.13;;;7.70;100.00
13732;BME280;6937;56.096;12.664;2023-05-03T02:04:33;102024.94;;;7.67;100.00
13732;BME280;6937;56.096;12.664;2023-05-03T02:06:59;102024.03;;;7.68;100.00
13732;BME280;6937;56.096;12.664;2023-05-03T02:09:24;102029.44;;;7.65;100.00
13732;BME280;6937;56.096;12.664;2023-05-03T02:11:49;102025.84;;;7.66;100.00
13732;BME280;6937;56.096;12.664;2023-05-03T02:14:15;102032.06;;;7.66;100.00
13732;BME280;6937;56.096;12.664;2023-05-03T02:16:40;102030.44;;;7.62;100.00
13732;BME280;6937;56.096;12.664;2023-05-03T02:19:05;102034.03;;;7.61;100.00
13732;BME280;6937;56.096;12.664;2023-05-03T02:21:33;102027.78;;;7.62;100.00
13732;BME280;6937;56.096;12.664;2023-05-03T02:23:58;102039.16;;;7.66;100.00
13732;BME280;6937;56.096;12.664;2023-05-03T02:26:24;102036.59;;;7.64;100.00
13732;BME280;6937;56.096;12.664;2023-05-03T02:28:49;102036.59;;;7.64;100.00
13732;BME280;6937;56.096;12.664;2023-05-03T02:31:15;102034.03;;;7.61;100.00
13732;BME280;6937;56.096;12.664;2023-05-03T02:33:40;102034.03;;;7.61;100.00
13732;BME280;6937;56.096;12.664;2023-05-03T02:36:06;102034.03;;;7.61;100.00
13732;BME280;6937;56.096;12.664;2023-05-03T02:38:31;102041.09;;;7.62;100.00
13732;BME280;6937;56.096;12.664;2023-05-03T02:40:57;102034.03;;;7.61;100.00
13732;BME280;6937;56.096;12.664;2023-05-03T02:43:23;102039.34;;;7.61;100.00
13732;BME280;6937;56.096;12.664;2023-05-03T02:45:49;102034.03;;;7.61;100.00
13732;BME280;6937;56.096;12.664;2023-05-03T02:48:15;102049.25;;;7.58;100.00
13732;BME280;6937;56.096;12.664;2023-05-03T02:50:40;102039.41;;;7.60;100.00
13732;BME280;6937;56.096;12.664;2023-05-03T02:53:06;102050.97;;;7.59;100.00
13732;BME280;6937;56.096;12.664;2023-05-03T02:55:32;102040.34;;;7.59;100.00
13732;BME280;6937;56.096;12.664;2023-05-03T02:57:57;102041.94;;;7.63;100.00
13732;BME280;6937;56.096;12.664;2023-05-03T03:00:22;102049.94;;;7.63;100.00
13732;BME280;6937;56.096;12.664;2023-05-03T03:02:48;102049.16;;;7.61;100.00
13732;BME280;6937;56.096;12.664;2023-05-03T03:05:14;102042.94;;;7.60;100.00
13732;BME280;6937;56.096;12.664;2023-05-03T03:07:39;102048.19;;;7.62;100.00
13732;BME280;6937;56.096;12.664;2023-05-03T03:10:06;102039.28;;;7.63;100.00
13732;BME280;6937;56.096;12.664;2023-05-03T03:12:33;102047.09;;;7.67;100.00
13732;BME280;6937;56.096;12.664;2023-05-03T03:14:59;102038.38;;;7.64;100.00
13732;BME280;6937;56.096;12.664;2023-05-03T03:17:25;102040.03;;;7.66;100.00
13732;BME280;6937;56.096;12.664;2023-05-03T03:19:50;102049.75;;;7.67;100.00
13732;BME280;6937;56.096;12.664;2023-05-03T03:22:16;102048.94;;;7.65;100.00
13732;BME280;6937;56.096;12.664;2023-05-03T03:24:41;102052.59;;;7.63;100.00
13732;BME280;6937;56.096;12.664;2023-05-03T03:27:07;102046.41;;;7.62;100.00
13732;BME280;6937;56.096;12.664;2023-05-03T03:29:33;102043.81;;;7.61;100.00
13732;BME280;6937;56.096;12.664;2023-05-03T03:31:59;102045.78;;;7.56;100.00
13732;BME280;6937;56.096;12.664;2023-05-03T03:34:24;102044.97;;;7.54;100.00
13732;BME280;6937;56.096;12.664;2023-05-03T03:36:50;102056.44;;;7.56;100.00
13732;BME280;6937;56.096;12.664;2023-05-03T03:39:15;102047.56;;;7.55;100.00
13732;BME280;6937;56.096;12.664;2023-05-03T03:41:41;102047.56;;;7.55;100.00
13732;BME280;6937;56.096;12.664;2023-05-03T03:44:06;102049.44;;;7.53;100.00
13732;BME280;6937;56.096;12.664;2023-05-03T03:46:31;102048.50;;;7.54;100.00
13732;BME280;6937;56.096;12.664;2023-05-03T03:48:57;102050.38;;;7.52;100.00
13732;BME280;6937;56.096;12.664;2023-05-03T03:51:22;102052.94;;;7.54;100.00
13732;BME280;6937;56.096;12.664;2023-05-03T03:53:48;102056.56;;;7.53;100.00
13732;BME280;6937;56.096;12.664;2023-05-03T03:56:13;102052.94;;;7.54;100.00
13732;BME280;6937;56.096;12.664;2023-05-03T03:58:40;102063.50;;;7.57;100.00
13732;BME280;6937;56.096;12.664;2023-05-03T04:01:05;102054.75;;;7.53;100.00
13732;BME280;6937;56.096;12.664;2023-05-03T04:03:31;102061.75;;;7.56;100.00
13732;BME280;6937;56.096;12.664;2023-05-03T04:05:57;102066.03;;;7.60;100.00
13732;BME280;6937;56.096;12.664;2023-05-03T04:08:22;102069.56;;;7.60;100.00
13732;BME280;6937;56.096;12.664;2023-05-03T04:10:48;102070.22;;;7.65;100.00
13732;BME280;6937;56.096;12.664;2023-05-03T04:13:13;102066.66;;;7.66;100.00
13732;BME280;6937;56.096;12.664;2023-05-03T04:15:38;102071.84;;;7.69;100.00
13732;BME280;6937;56.096;12.664;2023-05-03T04:18:04;102065.56;;;7.72;100.00
13732;BME280;6937;56.096;12.664;2023-05-03T04:20:30;102071.66;;;7.74;100.00
13732;BME280;6937;56.096;12.664;2023-05-03T04:22:56;102075.06;;;7.77;100.00
13732;BME280;6937;56.096;12.664;2023-05-03T04:25:22;102076.84;;;7.77;100.00
13732;BME280;6937;56.096;12.664;2023-05-03T04:27:48;102083.78;;;7.81;100.00
13732;BME280;6937;56.096;12.664;2023-05-03T04:30:13;102071.41;;;7.80;100.00
13732;BME280;6937;56.096;12.664;2023-05-03T04:32:40;102082.75;;;7.85;100.00
13732;BME280;6937;56.096;12.664;2023-05-03T04:35:07;102084.34;;;7.89;100.00
13732;BME280;6937;56.096;12.664;2023-05-03T04:37:34;102083.44;;;7.90;100.00
13732;BME280;6937;56.096;12.664;2023-05-03T04:39:59;102085.28;;;7.88;100.00
13732;BME280;6937;56.096;12.664;2023-05-03T04:42:25;102085.47;;;7.84;100.00
13732;BME280;6937;56.096;12.664;2023-05-03T04:44:51;102085.41;;;7.85;100.00
13732;BME280;6937;56.096;12.664;2023-05-03T04:47:16;102081.69;;;7.89;100.00
13732;BME280;6937;56.096;12.664;2023-05-03T04:49:42;102085.16;;;7.91;100.00
13732;BME280;6937;56.096;12.664;2023-05-03T04:52:08;102099.34;;;7.92;100.00
13732;BME280;6937;56.096;12.664;2023-05-03T04:54:34;102104.34;;;7.99;100.00
13732;BME280;6937;56.096;12.664;2023-05-03T04:57:00;102099.75;;;8.03;100.00
13732;BME280;6937;56.096;12.664;2023-05-03T04:59:25;102104.88;;;8.09;100.00
13732;BME280;6937;56.096;12.664;2023-05-03T05:01:51;102101.19;;;8.11;100.00
13732;BME280;6937;56.096;12.664;2023-05-03T05:04:16;102103.06;;;8.09;100.00
13732;BME280;6937;56.096;12.664;2023-05-03T05:06:41;102106.72;;;8.07;100.00
13732;BME280;6937;56.096;12.664;2023-05-03T05:09:19;102097.94;;;8.05;100.00
13732;BME280;6937;56.096;12.664;2023-05-03T05:11:45;102108.41;;;8.09;100.00
13732;BME280;6937;56.096;12.664;2023-05-03T05:14:10;102103.69;;;8.16;100.00
13732;BME280;6937;56.096;12.664;2023-05-03T05:16:36;102114.16;;;8.20;100.00
13732;BME280;6937;56.096;12.664;2023-05-03T05:19:01;102111.59;;;8.17;100.00
13732;BME280;6937;56.096;12.664;2023-05-03T05:21:28;102113.41;;;8.17;100.00
13732;BME280;6937;56.096;12.664;2023-05-03T05:23:53;102124.06;;;8.17;100.00
13732;BME280;6937;56.096;12.664;2023-05-03T05:26:19;102115.19;;;8.16;100.00
13732;BME280;6937;56.096;12.664;2023-05-03T05:28:44;102117.59;;;8.22;100.00
13732;BME280;6937;56.096;12.664;2023-05-03T05:31:09;102123.66;;;8.26;100.00
13732;BME280;6937;56.096;12.664;2023-05-03T05:33:35;102124.31;;;8.33;100.00
13732;BME280;6937;56.096;12.664;2023-05-03T05:36:01;102134.03;;;8.34;100.00
13732;BME280;6937;56.096;12.664;2023-05-03T05:38:26;102134.88;;;8.36;100.00
13732;BME280;6937;56.096;12.664;2023-05-03T05:40:52;102141.91;;;8.37;100.00
13732;BME280;6937;56.096;12.664;2023-05-03T05:43:17;102133.72;;;8.41;100.00
13732;BME280;6937;56.096;12.664;2023-05-03T05:45:43;102136.06;;;8.49;100.00
13732;BME280;6937;56.096;12.664;2023-05-03T05:48:08;102133.47;;;8.47;100.00
13732;BME280;6937;56.096;12.664;2023-05-03T05:50:34;102130.69;;;8.50;100.00
13732;BME280;6937;56.096;12.664;2023-05-03T05:53:00;102132.31;;;8.54;100.00
13732;BME280;6937;56.096;12.664;2023-05-03T05:55:26;102139.44;;;8.54;100.00
13732;BME280;6937;56.096;12.664;2023-05-03T05:57:51;102140.22;;;8.56;100.00
13732;BME280;6937;56.096;12.664;2023-05-03T06:00:17;102144.34;;;8.63;100.00
13732;BME280;6937;56.096;12.664;2023-05-03T06:02:44;102139.88;;;8.63;100.00
13732;BME280;6937;56.096;12.664;2023-05-03T06:05:10;102145.94;;;8.67;100.00
13732;BME280;6937;56.096;12.664;2023-05-03T06:07:36;102155.88;;;8.63;100.00
13732;BME280;6937;56.096;12.664;2023-05-03T06:10:02;102152.16;;;8.67;100.00
13732;BME280;6937;56.096;12.664;2023-05-03T06:12:28;102153.56;;;8.76;100.00
13732;BME280;6937;56.096;12.664;2023-05-03T06:14:54;102152.56;;;8.79;100.00
13732;BME280;6937;56.096;12.664;2023-05-03T06:17:20;102164.69;;;8.86;100.00
13732;BME280;6937;56.096;12.664;2023-05-03T06:19:47;102165.38;;;8.91;100.00
13732;BME280;6937;56.096;12.664;2023-05-03T06:22:16;102164.44;;;8.92;100.00
13732;BME280;6937;56.096;12.664;2023-05-03T06:24:41;102166.25;;;8.91;100.00
13732;BME280;6937;56.096;12.664;2023-05-03T06:27:07;102169.56;;;8.96;100.00
13732;BME280;6937;56.096;12.664;2023-05-03T06:29:32;102173.63;;;9.05;100.00
13732;BME280;6937;56.096;12.664;2023-05-03T06:31:58;102182.84;;;8.98;100.00
13732;BME280;6937;56.096;12.664;2023-05-03T06:34:24;102175.84;;;8.95;100.00
13732;BME280;6937;56.096;12.664;2023-05-03T06:36:49;102184.72;;;8.96;100.00
13732;BME280;6937;56.096;12.664;2023-05-03T06:39:15;102175.91;;;8.94;100.00
13732;BME280;6937;56.096;12.664;2023-05-03T06:41:41;102172.13;;;8.99;100.00
13732;BME280;6937;56.096;12.664;2023-05-03T06:44:06;102175.56;;;9.01;100.00
13732;BME280;6937;56.096;12.664;2023-05-03T06:46:32;102168.41;;;9.03;100.00
13732;BME280;6937;56.096;12.664;2023-05-03T06:48:58;102182.22;;;9.11;100.00
13732;BME280;6937;56.096;12.664;2023-05-03T06:51:23;102177.97;;;9.07;100.00
13732;BME280;6937;56.096;12.664;2023-05-03T06:53:57;102174.13;;;9.14;100.00
13732;BME280;6937;56.096;12.664;2023-05-03T06:56:24;102179.47;;;9.14;100.00
13732;BME280;6937;56.096;12.664;2023-05-03T06:58:50;102181.16;;;9.15;100.00
13732;BME280;6937;56.096;12.664;2023-05-03T07:01:15;102183.91;;;9.14;100.00
13732;BME280;6937;56.096;12.664;2023-05-03T07:03:43;102194.72;;;9.11;100.00
13732;BME280;6937;56.096;12.664;2023-05-03T07:06:08;102188.19;;;9.18;100.00
13732;BME280;6937;56.096;12.664;2023-05-03T07:08:34;102188.19;;;9.18;100.00
13732;BME280;6937;56.096;12.664;2023-05-03T07:10:59;102189.13;;;9.17;100.00
13732;BME280;6937;56.096;12.664;2023-05-03T07:13:24;102188.09;;;9.19;100.00
13732;BME280;6937;56.096;12.664;2023-05-03T07:15:50;102186.69;;;9.31;100.00
13732;BME280;6937;56.096;12.664;2023-05-03T07:18:15;102195.38;;;9.36;100.00
13732;BME280;6937;56.096;12.664;2023-05-03T07:20:40;102184.56;;;9.39;100.00
13732;BME280;6937;56.096;12.664;2023-05-03T07:23:06;102205.03;;;9.39;100.00
13732;BME280;6937;56.096;12.664;2023-05-03T07:25:32;102201.31;;;9.43;100.00
13732;BME280;6937;56.096;12.664;2023-05-03T07:27:57;102205.03;;;9.39;100.00
13732;BME280;6937;56.096;12.664;2023-05-03T07:30:23;102205.03;;;9.39;100.00
13732;BME280;6937;56.096;12.664;2023-05-03T07:32:48;102213.88;;;9.41;100.00
13732;BME280;6937;56.096;12.664;2023-05-03T07:35:14;102198.16;;;9.53;100.00
13732;BME280;6937;56.096;12.664;2023-05-03T07:37:41;102208.69;;;9.56;100.00
13732;BME280;6937;56.096;12.664;2023-05-03T07:40:07;102206.88;;;9.57;100.00
13732;BME280;6937;56.096;12.664;2023-05-03T07:42:34;102213.56;;;9.67;100.00
13732;BME280;6937;56.096;12.664;2023-05-03T07:44:59;102230.66;;;9.63;100.00
13732;BME280;6937;56.096;12.664;2023-05-03T07:47:25;102236.09;;;9.60;100.00
13732;BME280;6937;56.096;12.664;2023-05-03T07:49:51;102230.41;;;9.67;100.00
13732;BME280;6937;56.096;12.664;2023-05-03T07:52:17;102228.22;;;9.77;100.00
13732;BME280;6937;56.096;12.664;2023-05-03T07:54:42;102237.28;;;9.73;100.00
13732;BME280;6937;56.096;12.664;2023-05-03T07:57:12;102243.41;;;9.75;100.00
13732;BME280;6937;56.096;12.664;2023-05-03T07:59:38;102249.38;;;9.82;100.00
13732;BME280;6937;56.096;12.664;2023-05-03T08:02:03;102248.66;;;9.78;100.00
13732;BME280;6937;56.096;12.664;2023-05-03T08:04:28;102249.00;;;9.70;100.00
13732;BME280;6937;56.096;12.664;2023-05-03T08:06:54;102253.66;;;9.65;100.00
13732;BME280;6937;56.096;12.664;2023-05-03T08:09:19;102264.28;;;9.67;100.00
13732;BME280;6937;56.096;12.664;2023-05-03T08:11:45;102265.84;;;9.71;100.00
13732;BME280;6937;56.096;12.664;2023-05-03T08:14:11;102256.84;;;9.74;100.00
13732;BME280;6937;56.096;12.664;2023-05-03T08:16:36;102275.94;;;9.85;100.00
13732;BME280;6937;56.096;12.664;2023-05-03T08:19:02;102254.63;;;9.83;100.00
13732;BME280;6937;56.096;12.664;2023-05-03T08:21:29;102258.31;;;9.81;100.00
13732;BME280;6937;56.096;12.664;2023-05-03T08:23:54;102265.88;;;9.90;100.00
13732;BME280;6937;56.096;12.664;2023-05-03T08:26:20;102266.41;;;9.98;100.00
13732;BME280;6937;56.096;12.664;2023-05-03T08:28:46;102280.63;;;9.98;100.00
13732;BME280;6937;56.096;12.664;2023-05-03T08:31:11;102286.25;;;9.92;100.00
13732;BME280;6937;56.096;12.664;2023-05-03T08:33:37;102290.09;;;10.05;100.00
13732;BME280;6937;56.096;12.664;2023-05-03T08:36:02;102282.22;;;10.02;100.00
13732;BME280;6937;56.096;12.664;2023-05-03T08:38:28;102284.84;;;10.04;100.00
13732;BME280;6937;56.096;12.664;2023-05-03T08:40:57;102276.22;;;9.97;100.00
13732;BME280;6937;56.096;12.664;2023-05-03T08:43:26;102270.75;;;10.00;100.00
13732;BME280;6937;56.096;12.664;2023-05-03T08:45:52;102285.72;;;10.04;100.00
13732;BME280;6937;56.096;12.664;2023-05-03T08:48:18;102285.34;;;9.93;100.00
13732;BME280;6937;56.096;12.664;2023-05-03T08:50:43;102295.34;;;9.88;100.00
13732;BME280;6937;56.096;12.664;2023-05-03T08:53:09;102283.28;;;9.80;100.00
13732;BME280;6937;56.096;12.664;2023-05-03T08:55:36;102289.72;;;9.94;100.00
13732;BME280;6937;56.096;12.664;2023-05-03T08:58:08;102295.38;;;10.07;100.00
13732;BME280;6937;56.096;12.664;2023-05-03T09:00:36;102292.56;;;10.10;100.00
13732;BME280;6937;56.096;12.664;2023-05-03T09:03:02;102300.25;;;10.17;100.00
13732;BME280;6937;56.096;12.664;2023-05-03T09:05:32;102294.13;;;10.15;100.00
13732;BME280;6937;56.096;12.664;2023-05-03T09:08:00;102303.03;;;10.35;100.00
13732;BME280;6937;56.096;12.664;2023-05-03T09:10:26;102312.97;;;10.31;100.00
13732;BME280;6937;56.096;12.664;2023-05-03T09:12:57;102328.50;;;10.03;100.00
13732;BME280;6937;56.096;12.664;2023-05-03T09:15:23;102336.22;;;10.09;100.00
13732;BME280;6937;56.096;12.664;2023-05-03T09:18:08;102315.50;;;10.15;100.00
13732;BME280;6937;56.096;12.664;2023-05-03T09:20:34;102324.31;;;10.17;100.00
13732;BME280;6937;56.096;12.664;2023-05-03T09:23:01;102330.13;;;10.27;100.00
13732;BME280;6937;56.096;12.664;2023-05-03T09:25:46;102333.50;;;10.31;100.00
13732;BME280;6937;56.096;12.664;2023-05-03T09:28:14;102332.72;;;10.47;100.00
13732;BME280;6937;56.096;12.664;2023-05-03T09:30:40;102348.91;;;10.44;100.00
13732;BME280;6937;56.096;12.664;2023-05-03T09:33:06;102354.66;;;10.35;100.00
13732;BME280;6937;56.096;12.664;2023-05-03T09:35:33;102345.84;;;10.33;100.00
13732;BME280;6937;56.096;12.664;2023-05-03T09:37:58;102357.06;;;10.41;100.00
13732;BME280;6937;56.096;12.664;2023-05-03T09:40:27;102361.34;;;10.45;100.00
13732;BME280;6937;56.096;12.664;2023-05-03T09:43:10;102358.66;;;10.64;100.00
13732;BME280;6937;56.096;12.664;2023-05-03T09:45:36;102355.63;;;10.53;100.00
13732;BME280;6937;56.096;12.664;2023-05-03T09:48:03;102363.03;;;10.46;100.00
13732;BME280;6937;56.096;12.664;2023-05-03T09:50:30;102356.63;;;10.69;100.00
13732;BME280;6937;56.096;12.664;2023-05-03T09:52:59;102356.25;;;10.77;100.00
13732;BME280;6937;56.096;12.664;2023-05-03T09:55:26;102359.03;;;10.75;100.00
13732;BME280;6937;56.096;12.664;2023-05-03T09:57:53;102367.78;;;10.79;100.00
13732;BME280;6937;56.096;12.664;2023-05-03T10:00:19;102367.31;;;10.69;100.00
13732;BME280;6937;56.096;12.664;2023-05-03T10:02:48;102365.72;;;10.65;100.00
13732;BME280;6937;56.096;12.664;2023-05-03T10:05:15;102373.84;;;10.63;100.00
13732;BME280;6937;56.096;12.664;2023-05-03T10:07:44;102381.28;;;10.57;100.00
13732;BME280;6937;56.096;12.664;2023-05-03T10:10:10;102382.84;;;10.61;100.00
13732;BME280;6937;56.096;12.664;2023-05-03T10:12:35;102380.22;;;10.80;100.00
13732;BME280;6937;56.096;12.664;2023-05-03T10:15:04;102379.91;;;10.86;100.00
13732;BME280;6937;56.096;12.664;2023-05-03T10:17:34;102385.97;;;10.52;100.00
13732;BME280;6937;56.096;12.664;2023-05-03T10:20:11;102388.28;;;10.59;100.00
13732;BME280;6937;56.096;12.664;2023-05-03T10:25:30;102411.09;;;10.48;100.00
13732;BME280;6937;56.096;12.664;2023-05-03T10:28:03;102396.38;;;10.58;100.00
13732;BME280;6937;56.096;12.664;2023-05-03T10:30:30;102409.22;;;10.50;100.00
13732;BME280;6937;56.096;12.664;2023-05-03T10:35:42;102411.56;;;10.76;100.00
13732;BME280;6937;56.096;12.664;2023-05-03T10:38:14;102414.97;;;10.80;100.00
13732;BME280;6937;56.096;12.664;2023-05-03T10:40:41;102414.47;;;10.90;100.00
13732;BME280;6937;56.096;12.664;2023-05-03T10:48:26;102410.63;;;10.96;100.00
13732;BME280;6937;56.096;12.664;2023-05-03T10:50:53;102407.88;;;10.97;100.00
13732;BME280;6937;56.096;12.664;2023-05-03T10:53:39;102417.72;;;10.78;100.00
13732;BME280;6937;56.096;12.664;2023-05-03T10:56:09;102425.59;;;10.81;100.00
13732;BME280;6937;56.096;12.664;2023-05-03T10:58:45;102421.06;;;10.83;100.00
13732;BME280;6937;56.096;12.664;2023-05-03T11:01:13;102426.16;;;11.06;100.00
13732;BME280;6937;56.096;12.664;2023-05-03T11:03:50;102446.84;;;11.03;100.00
13732;BME280;6937;56.096;12.664;2023-05-03T11:06:28;102437.31;;;10.97;100.00
13732;BME280;6937;56.096;12.664;2023-05-03T11:08:55;102438.09;;;10.99;100.00
13732;BME280;6937;56.096;12.664;2023-05-03T11:11:20;102438.16;;;11.17;100.00
13732;BME280;6937;56.096;12.664;2023-05-03T11:13:46;102433.69;;;11.17;100.00
13732;BME280;6937;56.096;12.664;2023-05-03T11:16:12;102438.03;;;11.01;100.00
13732;BME280;6937;56.096;12.664;2023-05-03T11:18:37;102442.34;;;11.03;100.00
13732;BME280;6937;56.096;12.664;2023-05-03T11:21:03;102448.78;;;11.18;100.00
13732;BME280;6937;56.096;12.664;2023-05-03T11:23:28;102446.41;;;11.12;100.00
13732;BME280;6937;56.096;12.664;2023-05-03T11:25:55;102448.00;;;10.97;100.00
13732;BME280;6937;56.096;12.664;2023-05-03T11:28:23;102454.44;;;10.93;100.00
13732;BME280;6937;56.096;12.664;2023-05-03T11:30:49;102443.78;;;11.10;100.00
13732;BME280;6937;56.096;12.664;2023-05-03T11:33:15;102440.34;;;11.08;100.00
13732;BME280;6937;56.096;12.664;2023-05-03T11:35:40;102449.00;;;11.13;100.00
13732;BME280;6937;56.096;12.664;2023-05-03T11:38:07;102453.56;;;11.30;100.00
13732;BME280;6937;56.096;12.664;2023-05-03T11:40:33;102459.06;;;11.27;100.00
13732;BME280;6937;56.096;12.664;2023-05-03T11:42:58;102467.31;;;11.23;100.00
13732;BME280;6937;56.096;12.664;2023-05-03T11:45:26;102460.63;;;11.50;100.00
13732;BME280;6937;56.096;12.664;2023-05-03T11:47:52;102457.25;;;11.63;100.00
13732;BME280;6937;56.096;12.664;2023-05-03T11:50:26;102448.66;;;11.57;100.00
13732;BME280;6937;56.096;12.664;2023-05-03T11:52:52;102459.38;;;11.57;100.00
13732;BME280;6937;56.096;12.664;2023-05-03T11:55:17;102460.06;;;11.79;100.00
13732;BME280;6937;56.096;12.664;2023-05-03T11:57:43;102449.69;;;11.90;100.00
13732;BME280;6937;56.096;12.664;2023-05-03T12:00:15;102458.97;;;12.00;100.00
13732;BME280;6937;56.096;12.664;2023-05-03T12:02:43;102463.41;;;11.84;100.00
13732;BME280;6937;56.096;12.664;2023-05-03T12:05:09;102458.97;;;11.83;100.00
13732;BME280;6937;56.096;12.664;2023-05-03T12:07:37;102461.72;;;11.82;100.00
13732;BME280;6937;56.096;12.664;2023-05-03T12:10:16;102460.97;;;11.61;100.00
13732;BME280;6937;56.096;12.664;2023-05-03T12:12:55;102462.22;;;11.54;100.00
13732;BME280;6937;56.096;12.664;2023-05-03T12:15:31;102465.13;;;11.67;100.00
13732;BME280;6937;56.096;12.664;2023-05-03T12:18:03;102477.56;;;11.86;100.00
13732;BME280;6937;56.096;12.664;2023-05-03T12:20:29;102475.53;;;11.91;100.00
13732;BME280;6937;56.096;12.664;2023-05-03T12:23:02;102468.38;;;11.92;100.00
13732;BME280;6937;56.096;12.664;2023-05-03T12:25:30;102469.84;;;11.80;100.00
13732;BME280;6937;56.096;12.664;2023-05-03T12:27:58;102484.34;;;11.93;100.00
13732;BME280;6937;56.096;12.664;2023-05-03T12:30:24;102484.25;;;11.78;100.00
13732;BME280;6937;56.096;12.664;2023-05-03T12:32:50;102489.31;;;11.84;100.00
13732;BME280;6937;56.096;12.664;2023-05-03T12:35:17;102489.97;;;12.06;100.00
13732;BME280;6937;56.096;12.664;2023-05-03T12:37:42;102490.75;;;12.25;100.00
13732;BME280;6937;56.096;12.664;2023-05-03T12:40:08;102489.50;;;12.32;100.00
13732;BME280;6937;56.096;12.664;2023-05-03T12:42:33;102483.00;;;12.19;100.00
13732;BME280;6937;56.096;12.664;2023-05-03T12:44:59;102485.13;;;11.78;100.00
13732;BME280;6937;56.096;12.664;2023-05-03T12:47:25;102486.25;;;11.91;100.00
13732;BME280;6937;56.096;12.664;2023-05-03T12:49:53;102489.53;;;11.96;100.00
13732;BME280;6937;56.096;12.664;2023-05-03T12:52:21;102475.78;;;12.21;100.00
13732;BME280;6937;56.096;12.664;2023-05-03T12:54:48;102482.22;;;12.34;100.00
13732;BME280;6937;56.096;12.664;2023-05-03T12:57:13;102491.38;;;12.47;100.00
13732;BME280;6937;56.096;12.664;2023-05-03T12:59:39;102487.16;;;12.42;100.00